Time;durP1;ratioP1;P1;durP2;ratioP2;P2;SDS_P1;SDS_P2;PMS_P1;PMS_P2;Temp;Humidity;BMP_temperature;BMP_pressure;BME280_temperature;BME280_humidity;BME280_pressure;Samples;Min_cycle;Max_cycle;Signal;HPM_P1;HPM_P2
2023/10/08 00:02:14;;;;;;;1.47;1.37;;;12.80;55.30;12.00;96899.00;;;;5053410;28;20602;-61
2023/10/08 00:04:44;;;;;;;1.27;1.27;;;12.80;55.50;12.10;96894.00;;;;5053528;28;20226;-61
2023/10/08 00:07:11;;;;;;;1.63;1.53;;;12.70;55.60;12.10;96875.00;;;;5053270;28;20183;-61
2023/10/08 00:09:38;;;;;;;1.10;1.10;;;12.80;55.40;12.00;96880.00;;;;5053299;28;20553;-61
2023/10/08 00:12:10;;;;;;;1.93;1.83;;;12.70;55.80;11.90;96876.00;;;;5052930;28;20333;-61
2023/10/08 00:14:44;;;;;;;1.77;1.60;;;12.70;55.30;12.00;96872.00;;;;5051686;28;20184;-61
2023/10/08 00:17:13;;;;;;;2.20;1.17;;;12.70;55.30;12.00;96869.00;;;;5053020;28;20196;-61
2023/10/08 00:19:42;;;;;;;1.10;1.00;;;12.70;55.40;12.00;96864.00;;;;5051671;28;20200;-61
2023/10/08 00:22:10;;;;;;;1.40;1.33;;;12.70;55.20;11.90;96870.00;;;;5052900;28;20710;-61
2023/10/08 00:24:40;;;;;;;1.10;1.10;;;12.70;55.20;11.80;96867.00;;;;5052978;28;20246;-61
2023/10/08 00:27:10;;;;;;;1.97;1.63;;;12.60;55.90;11.80;96860.00;;;;5052944;28;20208;-61
2023/10/08 00:29:40;;;;;;;3.30;2.87;;;12.50;55.60;11.70;96861.00;;;;5052741;28;20294;-61
2023/10/08 00:32:12;;;;;;;1.63;1.53;;;12.50;56.50;11.70;96857.00;;;;5053391;28;20223;-61
2023/10/08 00:34:43;;;;;;;1.47;1.30;;;12.40;56.20;11.80;96855.00;;;;5053094;28;20180;-61
2023/10/08 00:37:13;;;;;;;1.80;1.57;;;12.50;56.00;11.70;96847.00;;;;5053051;28;20172;-61
2023/10/08 00:39:41;;;;;;;1.63;1.53;;;12.40;56.10;11.70;96850.00;;;;5053063;28;20184;-61
2023/10/08 00:42:12;;;;;;;1.47;1.37;;;12.50;55.50;11.60;96827.00;;;;5053349;28;20204;-61
2023/10/08 00:44:47;;;;;;;0.93;0.93;;;12.40;55.50;11.80;96816.00;;;;5054731;28;20181;-60
2023/10/08 00:47:18;;;;;;;2.03;1.53;;;12.50;55.10;11.80;96845.00;;;;5054271;28;20182;-61
2023/10/08 00:50:03;;;;;;;1.13;1.07;;;12.60;54.50;11.90;96836.00;;;;5052903;28;20219;-60
2023/10/08 00:52:39;;;;;;;1.30;1.20;;;12.60;54.10;12.00;96828.00;;;;5052839;28;20608;-61
2023/10/08 00:55:09;;;;;;;1.50;1.30;;;12.60;53.90;12.00;96829.00;;;;5054769;28;20176;-61
2023/10/08 00:57:42;;;;;;;1.07;1.03;;;12.70;54.30;11.90;96823.00;;;;5056348;28;20202;-61
2023/10/08 01:00:21;;;;;;;1.07;1.07;;;12.60;53.90;11.70;96823.00;;;;5055024;28;20192;-61
2023/10/08 01:02:55;;;;;;;2.20;1.03;;;12.50;54.80;11.80;96834.00;;;;5055320;28;20266;-61
2023/10/08 01:05:29;;;;;;;0.87;0.87;;;12.50;55.00;11.90;96832.00;;;;5056642;28;20234;-61
2023/10/08 01:07:58;;;;;;;1.47;1.37;;;12.60;54.70;11.90;96826.00;;;;5056893;28;20628;-61
2023/10/08 01:10:25;;;;;;;0.97;0.97;;;12.60;55.00;11.80;96824.00;;;;5056293;28;20224;-61
2023/10/08 01:13:05;;;;;;;1.37;1.33;;;12.60;54.80;11.70;96821.00;;;;5056163;28;20231;-61
2023/10/08 01:15:35;;;;;;;2.03;1.93;;;12.50;55.40;11.70;96825.00;;;;5056495;28;20173;-61
2023/10/08 01:18:06;;;;;;;0.97;0.97;;;12.50;55.50;11.70;96824.00;;;;5056242;28;20199;-61
2023/10/08 01:20:37;;;;;;;0.80;0.80;;;12.40;56.10;11.60;96808.00;;;;5056046;28;20648;-61
2023/10/08 01:23:09;;;;;;;0.73;0.73;;;12.40;56.10;11.70;96820.00;;;;5056242;28;20212;-60
2023/10/08 01:25:38;;;;;;;1.00;1.00;;;12.40;55.20;11.80;96826.00;;;;5056590;28;20576;-60
2023/10/08 01:28:14;;;;;;;0.93;0.93;;;12.60;54.90;12.00;96817.00;;;;5054529;28;20188;-60
2023/10/08 01:30:46;;;;;;;0.90;0.90;;;12.70;53.60;12.10;96811.00;;;;5055627;28;20246;-60
2023/10/08 01:33:15;;;;;;;1.33;1.23;;;12.80;53.10;12.10;96817.00;;;;5055740;28;20594;-61
2023/10/08 01:35:43;;;;;;;1.47;1.07;;;12.80;53.30;12.10;96811.00;;;;5055661;28;20192;-60
2023/10/08 01:38:13;;;;;;;1.00;1.00;;;12.80;53.00;12.20;96823.00;;;;5055942;28;20655;-60
2023/10/08 01:40:50;;;;;;;5.37;1.10;;;12.90;52.60;12.30;96820.00;;;;5055673;28;20543;-61
2023/10/08 01:43:17;;;;;;;0.97;0.97;;;13.00;51.80;12.50;96797.00;;;;5055987;28;20275;-60
2023/10/08 01:45:48;;;;;;;1.57;1.30;;;13.10;51.00;12.50;96820.00;;;;5054394;28;20224;-60
2023/10/08 01:48:20;;;;;;;1.57;1.47;;;13.20;51.10;12.50;96812.00;;;;5055900;28;20180;-61
2023/10/08 01:50:48;;;;;;;1.00;1.00;;;13.20;51.10;12.50;96805.00;;;;5055650;28;20208;-61
2023/10/08 01:53:16;;;;;;;0.53;0.53;;;13.20;50.50;12.60;96807.00;;;;5055759;28;20218;-61
2023/10/08 01:55:48;;;;;;;1.07;1.07;;;13.30;49.70;12.70;96805.00;;;;5055363;28;20185;-61
2023/10/08 01:58:17;;;;;;;1.10;1.10;;;13.40;49.00;12.80;96805.00;;;;5055623;28;20632;-61
2023/10/08 02:00:47;;;;;;;1.43;1.33;;;13.50;63.20;12.80;96804.00;;;;5055913;28;20200;-61
2023/10/08 02:03:16;;;;;;;2.30;2.10;;;;;12.90;96788.00;;;;5055506;28;20670;-61
2023/10/08 02:05:43;;;;;;;1.13;1.07;;;13.50;47.50;12.90;96801.00;;;;5055137;28;20192;-61
2023/10/08 02:08:12;;;;;;;1.30;1.30;;;13.60;47.70;13.20;96790.00;;;;5055160;28;20271;-61
2023/10/08 02:10:46;;;;;;;2.20;1.67;;;;;13.20;96788.00;;;;5055326;28;20239;-61
2023/10/08 02:13:16;;;;;;;0.70;0.70;;;13.70;83.00;13.20;96789.00;;;;5055222;28;20183;-61
2023/10/08 02:15:52;;;;;;;0.93;0.93;;;13.80;73.30;13.20;96785.00;;;;5055374;28;20238;-61
2023/10/08 02:18:21;;;;;;;1.90;1.03;;;;;13.30;96797.00;;;;5054907;28;20200;-61
2023/10/08 02:20:48;;;;;;;0.70;0.70;;;;;13.30;96789.00;;;;5053597;28;20224;-61
2023/10/08 02:23:17;;;;;;;0.80;0.80;;;;;13.30;96792.00;;;;5054932;28;20196;-61
2023/10/08 02:25:47;;;;;;;2.00;1.20;;;;;13.20;96785.00;;;;5054946;28;20202;-61
2023/10/08 02:28:15;;;;;;;0.77;0.77;;;;;13.20;96788.00;;;;5054810;28;20192;-61
2023/10/08 02:30:43;;;;;;;1.23;1.23;;;13.90;82.30;13.20;96786.00;;;;5055215;28;20266;-61
2023/10/08 02:33:15;;;;;;;4.27;1.93;;;13.90;72.90;13.10;96776.00;;;;5054922;28;20206;-61
2023/10/08 02:35:43;;;;;;;0.97;0.97;;;13.80;70.00;13.10;96782.00;;;;5054710;28;20176;-60
2023/10/08 02:38:12;;;;;;;1.70;1.27;;;13.80;68.30;13.10;96782.00;;;;5054692;28;20200;-60
2023/10/08 02:40:44;;;;;;;1.27;1.20;;;13.80;68.20;13.10;96778.00;;;;5055456;28;20195;-60
2023/10/08 02:43:14;;;;;;;1.90;1.40;;;13.80;68.20;13.00;96787.00;;;;5054890;28;20180;-61
2023/10/08 02:45:42;;;;;;;5.10;1.60;;;13.80;68.30;12.90;96788.00;;;;5055070;28;20196;-61
2023/10/08 02:48:12;;;;;;;1.10;1.07;;;13.70;68.90;12.80;96794.00;;;;5054666;28;20551;-61
2023/10/08 02:50:40;;;;;;;1.13;1.10;;;13.50;69.60;12.60;96792.00;;;;5054304;28;20216;-61
2023/10/08 02:53:10;;;;;;;0.90;0.90;;;13.40;70.50;12.50;96800.00;;;;5054398;28;20211;-61
2023/10/08 02:55:42;;;;;;;1.93;1.67;;;13.30;71.10;12.40;96806.00;;;;5055065;28;20189;-61
2023/10/08 02:58:14;;;;;;;1.10;1.10;;;13.20;71.90;12.20;96805.00;;;;5054342;28;20177;-61
2023/10/08 03:00:43;;;;;;;1.43;1.33;;;13.00;72.40;12.10;96774.00;;;;5054685;28;20184;-60
2023/10/08 03:03:15;;;;;;;2.47;1.17;;;12.90;74.20;12.00;96794.00;;;;5054279;28;20184;-60
2023/10/08 03:05:47;;;;;;;1.07;1.07;;;12.90;74.00;12.00;96794.00;;;;5054603;28;20180;-61
2023/10/08 03:08:19;;;;;;;0.60;0.60;;;12.80;74.60;11.90;96793.00;;;;5054240;28;20175;-61
2023/10/08 03:10:48;;;;;;;1.80;1.67;;;12.80;74.60;11.90;96789.00;;;;5052732;28;20303;-60
2023/10/08 03:13:16;;;;;;;0.80;0.80;;;12.70;75.60;11.80;96802.00;;;;5054043;28;20194;-61
2023/10/08 03:15:57;;;;;;;1.43;1.33;;;12.60;76.20;11.90;96802.00;;;;5054283;28;20246;-60
2023/10/08 03:18:25;;;;;;;1.40;1.23;;;12.60;76.70;11.90;96807.00;;;;5053465;28;20291;-60
2023/10/08 03:20:52;;;;;;;1.00;1.00;;;12.60;76.60;11.80;96807.00;;;;5052414;28;20486;-60
2023/10/08 03:23:33;;;;;;;2.20;1.43;;;12.50;77.20;11.70;96811.00;;;;5053939;28;20249;-61
2023/10/08 03:26:10;;;;;;;1.37;1.27;;;12.50;77.70;11.50;96803.00;;;;5053835;28;20181;-61
2023/10/08 03:28:37;;;;;;;1.13;1.13;;;12.40;78.40;11.50;96801.00;;;;5054119;28;20218;-61
2023/10/08 03:31:13;;;;;;;1.37;1.30;;;12.30;80.40;11.60;96805.00;;;;5053601;28;20227;-60
2023/10/08 03:33:42;;;;;;;1.30;1.30;;;12.30;81.30;11.50;96796.00;;;;5054223;28;20180;-61
2023/10/08 03:36:14;;;;;;;1.83;1.73;;;12.30;82.90;11.50;96801.00;;;;5053784;28;20192;-62
2023/10/08 03:38:51;;;;;;;0.80;0.80;;;12.20;84.30;11.50;96807.00;;;;5053811;28;20188;-61
2023/10/08 03:41:27;;;;;;;3.20;1.80;;;12.20;86.20;11.50;96804.00;;;;5053926;28;20277;-61
2023/10/08 03:44:01;;;;;;;1.23;1.23;;;12.30;87.50;11.50;96792.00;;;;5052358;28;20196;-61
2023/10/08 03:46:30;;;;;;;1.33;1.23;;;12.30;87.40;11.60;96796.00;;;;5053496;28;20658;-62
2023/10/08 03:49:04;;;;;;;1.40;1.30;;;12.40;88.10;11.60;96805.00;;;;5053574;28;20192;-61
2023/10/08 03:51:38;;;;;;;1.53;1.43;;;12.40;87.70;11.50;96808.00;;;;5053736;28;20706;-61
2023/10/08 03:54:20;;;;;;;1.93;1.40;;;12.30;90.40;11.40;96809.00;;;;5054078;28;20175;-61
2023/10/08 03:56:49;;;;;;;0.70;0.70;;;12.20;91.90;11.40;96802.00;;;;5053413;28;20652;-61
2023/10/08 03:59:29;;;;;;;1.13;1.13;;;12.20;86.90;11.50;96800.00;;;;5053499;28;20192;-61
2023/10/08 04:02:09;;;;;;;1.43;1.23;;;12.30;84.10;11.40;96800.00;;;;5051848;28;20309;-61
2023/10/08 04:04:50;;;;;;;0.90;0.90;;;12.20;83.80;11.40;96805.00;;;;5053811;28;20180;-61
2023/10/08 04:07:58;;;;;;;1.33;1.27;;;12.10;83.80;11.50;96804.00;;;;5052151;28;20188;-61
2023/10/08 04:11:07;;;;;;;1.83;1.73;;;12.20;83.80;11.40;96799.00;;;;5054076;28;20292;-61
2023/10/08 04:13:28;;;;;;;1.30;1.30;;;12.20;84.20;11.40;96806.00;;;;5053320;28;20635;-61
2023/10/08 04:15:55;;;;;;;1.50;1.40;;;12.10;84.20;11.30;96796.00;;;;5053144;28;20249;-61
2023/10/08 04:18:23;;;;;;;1.10;1.10;;;12.10;84.80;11.40;96790.00;;;;5051743;28;20273;-61
2023/10/08 04:21:04;;;;;;;0.93;0.93;;;12.10;83.90;11.30;96800.00;;;;5053402;28;20192;-61
2023/10/08 04:23:31;;;;;;;1.97;1.83;;;12.10;83.40;11.30;96801.00;;;;5053083;28;20226;-60
2023/10/08 04:25:59;;;;;;;1.63;1.53;;;12.10;83.90;11.30;96795.00;;;;5053425;28;20494;-60
2023/10/08 04:28:31;;;;;;;2.43;1.97;;;12.10;83.70;11.30;96804.00;;;;5052973;28;20614;-60
2023/10/08 04:31:01;;;;;;;4.53;1.23;;;12.10;84.10;11.30;96785.00;;;;5056927;28;20211;-60
2023/10/08 04:33:33;;;;;;;1.20;1.20;;;12.10;84.50;11.30;96785.00;;;;5057075;28;20678;-60
2023/10/08 04:36:02;;;;;;;1.10;1.10;;;12.00;84.30;11.30;96792.00;;;;5057795;28;20199;-60
2023/10/08 04:38:36;;;;;;;0.90;0.90;;;12.10;84.60;11.30;96785.00;;;;5056943;28;20223;-60
2023/10/08 04:41:09;;;;;;;1.30;1.20;;;12.00;84.50;11.20;96795.00;;;;5057026;28;20189;-60
2023/10/08 04:43:38;;;;;;;1.30;1.20;;;12.00;84.30;11.20;96789.00;;;;5057271;28;20180;-60
2023/10/08 04:46:18;;;;;;;1.30;1.23;;;12.00;84.80;11.20;96795.00;;;;5056934;28;20271;-60
2023/10/08 04:48:47;;;;;;;1.13;1.03;;;12.00;85.40;11.40;96787.00;;;;5057284;28;20204;-61
2023/10/08 04:51:17;;;;;;;0.80;0.80;;;12.10;90.00;11.30;96783.00;;;;5056975;28;20321;-60
2023/10/08 04:53:47;;;;;;;0.80;0.80;;;12.10;90.80;11.40;96784.00;;;;5057028;28;20188;-60
2023/10/08 04:56:16;;;;;;;0.87;0.87;;;12.10;90.70;11.30;96781.00;;;;5056808;28;20195;-60
2023/10/08 04:58:47;;;;;;;1.10;1.00;;;12.00;91.40;11.30;96779.00;;;;5056606;28;20192;-61
2023/10/08 05:01:27;;;;;;;0.83;0.83;;;12.00;91.00;11.20;96788.00;;;;5056881;28;20212;-61
2023/10/08 05:04:23;;;;;;;0.93;0.93;;;12.00;91.30;11.20;96794.00;;;;5056753;28;20659;-60
2023/10/08 05:07:16;;;;;;;2.53;1.17;;;12.00;91.80;11.30;96795.00;;;;5056739;28;20216;-60
2023/10/08 05:10:11;;;;;;;5.47;1.57;;;12.00;92.40;11.40;96813.00;;;;5054888;28;20307;-60
2023/10/08 05:12:46;;;;;;;0.80;0.80;;;12.10;92.90;11.40;96810.00;;;;5056687;28;20336;-61
2023/10/08 05:15:32;;;;;;;0.70;0.70;;;;;11.40;96813.00;;;;5056579;28;20207;-60
2023/10/08 05:18:13;;;;;;;0.70;0.70;;;;;11.40;96808.00;;;;5056055;28;20287;-60
2023/10/08 05:20:59;;;;;;;1.90;1.80;;;;;11.40;96814.00;;;;5056722;28;20184;-60
2023/10/08 05:26:20;;;;;;;1.80;1.70;;;;;11.40;96816.00;;;;5055000;28;20184;-59
2023/10/08 05:29:00;;;;;;;0.80;0.80;;;;;11.40;96818.00;;;;5054892;28;20312;-59
2023/10/08 05:31:46;;;;;;;0.90;0.90;;;;;11.40;96810.00;;;;5056104;28;20281;-59
2023/10/08 05:34:18;;;;;;;1.10;1.10;;;;;11.30;96816.00;;;;5055979;28;20180;-60
2023/10/08 05:39:42;;;;;;;6.27;1.40;;;;;11.40;96831.00;;;;5055995;28;20204;-60
2023/10/08 05:42:19;;;;;;;1.23;1.20;;;;;11.40;96824.00;;;;5055202;28;20216;-60
2023/10/08 05:45:13;;;;;;;0.80;0.80;;;;;11.40;96814.00;;;;5056142;28;20616;-60
2023/10/08 05:47:41;;;;;;;5.00;1.70;;;;;11.50;96829.00;;;;5054184;28;20625;-60
2023/10/08 05:53:15;;;;;;;1.40;1.37;;;;;11.40;96830.00;;;;5050235;28;20234;-60
2023/10/08 05:55:47;;;;;;;1.63;1.53;;;;;11.50;96824.00;;;;5055619;28;20181;-60
2023/10/08 05:58:24;;;;;;;0.60;0.60;;;;;11.60;96820.00;;;;5056247;28;20621;-60
2023/10/08 06:01:08;;;;;;;1.37;1.30;;;;;11.60;96819.00;;;;5055508;28;20184;-60
2023/10/08 06:03:39;;;;;;;0.70;0.70;;;;;11.70;96828.00;;;;5055570;28;20184;-60
2023/10/08 06:06:35;;;;;;;10.10;1.70;;;;;11.70;96826.00;;;;5055595;28;20187;-60
2023/10/08 06:09:21;;;;;;;1.93;1.80;;;;;11.70;96837.00;;;;5055123;28;20607;-60
2023/10/08 06:12:12;;;;;;;1.27;1.17;;;;;11.80;96840.00;;;;5055336;28;20223;-60
2023/10/08 06:15:07;;;;;;;1.33;1.33;;;;;11.80;96841.00;;;;5055520;28;20624;-60
2023/10/08 06:17:55;;;;;;;2.00;1.63;;;;;11.90;96831.00;;;;5055149;28;20283;-60
2023/10/08 06:20:25;;;;;;;0.70;0.70;;;;;11.90;96845.00;;;;5055124;28;20198;-60
2023/10/08 06:22:59;;;;;;;1.27;1.27;;;;;12.00;96841.00;;;;5054972;28;20230;-60
2023/10/08 06:25:30;;;;;;;0.80;0.80;;;;;12.00;96836.00;;;;5055065;28;20651;-60
2023/10/08 06:27:58;;;;;;;0.90;0.90;;;;;11.90;96844.00;;;;5055540;28;20199;-60
2023/10/08 06:30:28;;;;;;;1.00;1.00;;;;;12.30;96839.00;;;;5054895;28;20219;-60
2023/10/08 06:32:57;;;;;;;1.13;1.13;;;13.20;56.10;12.50;96853.00;;;;5054892;28;20216;-60
2023/10/08 06:35:27;;;;;;;2.53;1.23;;;13.20;56.80;12.60;96858.00;;;;5054963;28;20714;-60
2023/10/08 06:37:59;;;;;;;0.90;0.90;;;13.30;62.10;12.50;96854.00;;;;5055340;28;20539;-60
2023/10/08 06:40:43;;;;;;;1.77;1.63;;;13.30;64.30;12.60;96851.00;;;;5055273;28;20258;-61
2023/10/08 06:43:21;;;;;;;1.10;1.07;;;13.20;65.40;12.60;96855.00;;;;5054958;28;20172;-60
2023/10/08 06:45:52;;;;;;;1.13;1.13;;;13.30;66.10;12.60;96846.00;;;;5055360;28;20184;-60
2023/10/08 06:48:21;;;;;;;0.87;0.87;;;13.30;66.60;12.80;96845.00;;;;5053536;28;20535;-60
2023/10/08 06:50:50;;;;;;;4.77;4.27;;;13.40;66.80;12.80;96831.00;;;;5054389;28;20224;-61
2023/10/08 06:53:19;;;;;;;2.20;2.00;;;13.50;67.90;12.90;96844.00;;;;5053751;28;20188;-60
2023/10/08 06:55:48;;;;;;;1.70;1.60;;;13.50;68.50;13.20;96852.00;;;;5054507;28;20188;-61
2023/10/08 06:58:16;;;;;;;2.20;1.40;;;13.80;68.00;13.40;96847.00;;;;5054559;28;20188;-60
2023/10/08 07:00:48;;;;;;;1.63;1.53;;;13.90;67.40;13.60;96845.00;;;;5054354;28;20196;-61
2023/10/08 07:03:17;;;;;;;1.07;1.03;;;14.20;66.80;13.90;96861.00;;;;5054112;28;20180;-61
2023/10/08 07:05:53;;;;;;;2.57;1.20;;;14.30;67.50;14.00;96860.00;;;;5054132;28;20188;-60
2023/10/08 07:08:24;;;;;;;0.90;0.90;;;14.50;69.00;14.00;96852.00;;;;5054494;28;20187;-60
2023/10/08 07:10:53;;;;;;;0.83;0.83;;;14.50;71.00;13.90;96859.00;;;;5053862;28;20301;-60
2023/10/08 07:13:22;;;;;;;1.20;1.03;;;14.60;79.40;14.10;96842.00;;;;5053993;28;20194;-60
2023/10/08 07:15:50;;;;;;;1.37;1.37;;;14.60;67.20;14.40;96862.00;;;;5053828;28;20689;-60
2023/10/08 07:18:24;;;;;;;2.33;1.17;;;;;14.50;96855.00;;;;5054380;28;20580;-60
2023/10/08 07:20:54;;;;;;;1.37;1.33;;;;;14.70;96852.00;;;;5054176;28;20171;-61
2023/10/08 07:23:25;;;;;;;1.17;1.17;;;15.30;52.20;14.80;96833.00;;;;5053658;28;20728;-60
2023/10/08 07:26:10;;;;;;;1.37;1.30;;;15.50;51.10;15.10;96843.00;;;;5053807;28;20180;-60
2023/10/08 07:28:39;;;;;;;2.47;1.43;;;15.50;51.50;15.30;96849.00;;;;5053863;28;20196;-60
2023/10/08 07:31:09;;;;;;;5.23;1.80;;;15.80;50.20;15.40;96858.00;;;;5053625;28;20597;-61
2023/10/08 07:33:37;;;;;;;5.83;1.60;;;15.90;49.80;15.50;96856.00;;;;5053281;28;20727;-60
2023/10/08 07:36:14;;;;;;;1.47;1.37;;;16.00;48.30;15.80;96852.00;;;;5053449;28;20185;-61
2023/10/08 07:38:42;;;;;;;0.73;0.73;;;16.20;46.90;16.00;96856.00;;;;5054016;28;20188;-60
2023/10/08 07:41:12;;;;;;;0.80;0.80;;;16.50;45.10;16.10;96864.00;;;;5053863;28;20211;-61
2023/10/08 07:43:39;;;;;;;0.70;0.70;;;16.50;46.00;16.20;96881.00;;;;5053420;28;20231;-60
2023/10/08 07:46:06;;;;;;;1.20;1.03;;;16.70;49.00;16.20;96878.00;;;;5053243;28;20192;-61
2023/10/08 07:48:33;;;;;;;1.17;1.17;;;16.70;48.80;16.20;96875.00;;;;5053608;28;20194;-61
2023/10/08 07:51:01;;;;;;;1.23;1.17;;;16.70;48.70;16.30;96881.00;;;;5053160;28;20578;-61
2023/10/08 07:53:37;;;;;;;0.70;0.70;;;;;16.30;96876.00;;;;5053220;28;20188;-60
2023/10/08 07:56:08;;;;;;;0.60;0.60;;;16.80;47.60;16.40;96876.00;;;;5053488;28;20283;-62
2023/10/08 07:58:36;;;;;;;1.37;1.27;;;16.90;50.40;16.30;96884.00;;;;5053774;28;20176;-61
2023/10/08 08:01:06;;;;;;;1.37;1.27;;;16.90;53.20;16.30;96881.00;;;;5053094;28;20200;-61
2023/10/08 08:03:36;;;;;;;1.23;1.13;;;16.90;55.90;16.30;96882.00;;;;5053211;28;20188;-61
2023/10/08 08:06:06;;;;;;;0.80;0.80;;;16.80;58.60;16.30;96871.00;;;;5053078;28;20571;-61
2023/10/08 08:08:35;;;;;;;1.70;1.60;;;16.90;61.60;16.40;96880.00;;;;5053510;28;20180;-61
2023/10/08 08:11:06;;;;;;;0.70;0.70;;;16.90;63.20;16.30;96869.00;;;;5053051;28;20227;-61
2023/10/08 08:13:35;;;;;;;0.83;0.83;;;16.90;64.10;16.30;96871.00;;;;5053436;28;20199;-61
2023/10/08 08:16:16;;;;;;;1.70;1.17;;;17.00;64.10;16.30;96876.00;;;;5053446;28;20200;-61
2023/10/08 08:18:43;;;;;;;2.33;2.13;;;16.90;64.80;16.40;96874.00;;;;5053298;28;20204;-61
2023/10/08 08:21:14;;;;;;;0.70;0.70;;;17.00;64.10;16.60;96877.00;;;;5053064;28;20311;-61
2023/10/08 08:23:47;;;;;;;1.40;1.30;;;17.20;64.70;16.80;96874.00;;;;5051864;28;20184;-61
2023/10/08 08:26:26;;;;;;;1.10;1.10;;;17.30;48.90;16.90;96881.00;;;;5053995;28;20200;-61
2023/10/08 08:28:56;;;;;;;1.37;1.30;;;17.30;48.50;17.10;96882.00;;;;5053518;28;20532;-62
2023/10/08 08:31:26;;;;;;;0.80;0.80;;;;;17.20;96884.00;;;;5052823;28;20230;-61
2023/10/08 08:34:02;;;;;;;0.90;0.90;;;17.60;47.60;17.30;96887.00;;;;5053298;28;20187;-61
2023/10/08 08:36:30;;;;;;;1.73;1.63;;;17.80;46.90;17.60;96875.00;;;;5053257;28;20233;-61
2023/10/08 08:38:57;;;;;;;5.70;1.20;;;17.90;48.10;17.90;96877.00;;;;5053151;28;20516;-61
2023/10/08 08:41:25;;;;;;;0.90;0.90;;;18.40;45.60;18.20;96888.00;;;;5053116;28;20207;-61
2023/10/08 08:43:59;;;;;;;1.23;1.13;;;18.50;46.40;18.30;96904.00;;;;5052896;28;20612;-61
2023/10/08 08:46:35;;;;;;;0.87;0.87;;;18.60;45.70;18.50;96908.00;;;;5051660;28;20257;-61
2023/10/08 08:49:07;;;;;;;0.57;0.57;;;18.80;44.10;18.70;96911.00;;;;5052550;28;20605;-61
2023/10/08 08:51:36;;;;;;;0.63;0.63;;;19.00;41.60;18.90;96922.00;;;;5052700;28;20668;-61
2023/10/08 08:54:06;;;;;;;1.67;1.57;;;19.30;61.30;19.10;96919.00;;;;5052729;28;20667;-61
2023/10/08 08:56:35;;;;;;;0.57;0.57;;;19.40;57.20;19.40;96909.00;;;;5052593;28;20279;-61
2023/10/08 08:59:05;;;;;;;1.00;1.00;;;;;19.70;96920.00;;;;5052571;28;20257;-61
2023/10/08 09:01:33;;;;;;;2.67;0.90;;;;;20.00;96923.00;;;;5052548;28;20208;-61
2023/10/08 09:04:01;;;;;;;0.83;0.83;;;20.20;37.10;20.10;96922.00;;;;5052547;28;20222;-61
2023/10/08 09:06:29;;;;;;;0.73;0.73;;;20.50;39.60;20.00;96931.00;;;;5052494;28;20246;-61
2023/10/08 09:09:11;;;;;;;0.80;0.80;;;20.40;38.10;20.10;96935.00;;;;5052562;28;20196;-62
2023/10/08 09:11:41;;;;;;;1.20;1.20;;;;;20.30;96943.00;;;;5052416;28;20220;-61
2023/10/08 09:14:11;;;;;;;0.33;0.33;;;;;20.50;96938.00;;;;5052457;28;20242;-61
2023/10/08 09:16:39;;;;;;;1.67;1.57;;;;;20.60;96945.00;;;;5055481;28;20195;-61
2023/10/08 09:19:11;;;;;;;2.77;1.63;;;;;20.80;96942.00;;;;5056285;28;20220;-61
2023/10/08 09:21:39;;;;;;;0.67;0.67;;;;;21.00;96945.00;;;;5056101;28;20269;-61
2023/10/08 09:24:10;;;;;;;1.57;1.47;;;;;21.30;96939.00;;;;5056111;28;20222;-61
2023/10/08 09:26:39;;;;;;;1.83;1.73;;;21.70;28.60;21.50;96937.00;;;;5056004;28;20184;-61
2023/10/08 09:29:08;;;;;;;1.20;1.17;;;21.80;30.00;21.50;96935.00;;;;5056844;28;20544;-61
2023/10/08 09:31:37;;;;;;;1.10;1.07;;;21.80;30.20;21.80;96942.00;;;;5055941;28;20240;-61
2023/10/08 09:34:05;;;;;;;0.70;0.70;;;22.10;28.60;21.90;96943.00;;;;5056120;28;20194;-62
2023/10/08 09:36:33;;;;;;;0.57;0.53;;;22.20;29.10;22.00;96944.00;;;;5055785;28;20550;-61
2023/10/08 09:39:04;;;;;;;1.08;1.08;;;22.40;27.80;22.10;96934.00;;;;5054711;28;20656;-61
2023/10/08 09:41:33;;;;;;;1.30;1.20;;;22.40;25.20;22.30;96938.00;;;;5056231;28;20215;-61
2023/10/08 09:44:00;;;;;;;0.60;0.60;;;22.60;25.50;22.40;96933.00;;;;5055648;28;20521;-61
2023/10/08 09:46:33;;;;;;;3.38;1.75;;;22.70;25.70;22.50;96933.00;;;;5055925;28;20192;-61
2023/10/08 09:49:02;;;;;;;1.45;1.40;;;22.90;25.40;22.60;96940.00;;;;5056240;28;20188;-61
2023/10/08 09:51:31;;;;;;;1.10;1.08;;;22.90;25.60;22.60;96942.00;;;;5055708;28;20274;-61
2023/10/08 09:54:10;;;;;;;1.50;1.15;;;;;22.40;96937.00;;;;5056133;28;20199;-61
2023/10/08 09:56:39;;;;;;;2.40;1.77;;;;;22.40;96932.00;;;;5055525;28;20207;-61
2023/10/08 09:59:09;;;;;;;1.10;1.10;;;22.80;23.00;22.60;96938.00;;;;5055812;28;20192;-61
2023/10/08 10:01:38;;;;;;;2.33;0.95;;;22.90;23.50;22.90;96935.00;;;;5055310;28;20291;-62
2023/10/08 10:04:10;;;;;;;4.18;1.17;;;23.10;21.80;23.40;96930.00;;;;5055348;28;20211;-61
2023/10/08 10:06:37;;;;;;;1.58;1.27;;;23.60;22.30;23.70;96930.00;;;;5054743;28;20584;-61
2023/10/08 10:09:09;;;;;;;1.25;1.17;;;23.90;21.80;23.80;96935.00;;;;5054140;28;20199;-62
2023/10/08 10:11:37;;;;;;;2.70;1.50;;;24.10;19.00;23.90;96942.00;;;;5055377;28;20667;-61
2023/10/08 10:14:06;;;;;;;1.92;1.83;;;24.20;19.10;23.90;96934.00;;;;5055743;28;20666;-61
2023/10/08 10:16:37;;;;;;;5.00;1.85;;;24.20;18.80;23.90;96937.00;;;;5055213;28;20210;-61
2023/10/08 10:19:06;;;;;;;0.50;0.50;;;24.30;19.70;24.00;96931.00;;;;5053895;28;20207;-61
2023/10/08 10:21:35;;;;;;;1.17;1.08;;;24.30;18.70;24.00;96931.00;;;;5055760;28;20655;-61
2023/10/08 10:24:05;;;;;;;1.15;1.08;;;24.30;19.10;24.20;96934.00;;;;5055159;28;20195;-61
2023/10/08 10:26:34;;;;;;;2.05;1.35;;;24.40;19.00;24.50;96937.00;;;;5055429;28;20180;-61
2023/10/08 10:29:22;;;;;;;5.13;1.80;;;24.70;17.90;24.60;96934.00;;;;5055268;28;20196;-62
2023/10/08 10:31:53;;;;;;;24.40;2.03;;;24.80;18.30;24.60;96929.00;;;;5054761;28;20231;-61
2023/10/08 10:34:24;;;;;;;19.63;1.25;;;24.90;16.80;24.70;96929.00;;;;5054885;28;20177;-61
2023/10/08 10:37:02;;;;;;;1.10;0.93;;;25.00;17.70;25.10;96930.00;;;;5053645;28;20192;-62
2023/10/08 10:39:32;;;;;;;1.00;1.00;;;25.20;17.70;25.20;96929.00;;;;5054910;28;20226;-61
2023/10/08 10:42:05;;;;;;;0.88;0.88;;;25.50;17.10;25.30;96928.00;;;;5054608;28;20262;-60
2023/10/08 10:44:36;;;;;;;2.17;1.52;;;;;25.30;96936.00;;;;5054559;28;20283;-61
2023/10/08 10:49:53;;;;;;;1.45;0.82;;;25.70;15.80;25.50;96932.00;;;;5054565;28;20181;-61
2023/10/08 10:52:31;;;;;;;1.45;1.35;;;25.70;16.10;25.70;96929.00;;;;5054516;28;20230;-65
2023/10/08 10:55:18;;;;;;;0.85;0.85;;;25.90;16.10;26.00;96935.00;;;;5054495;28;20279;-60
2023/10/08 10:57:55;;;;;;;4.47;1.58;;;26.20;16.40;25.70;96925.00;;;;5054532;28;20536;-60
2023/10/08 11:03:16;;;;;;;0.85;0.82;;;26.20;15.70;26.20;96932.00;;;;5054183;28;20261;-60
2023/10/08 11:05:51;;;;;;;3.47;1.00;;;26.40;15.10;26.30;96923.00;;;;5054833;28;20184;-61
2023/10/08 11:08:22;;;;;;;3.70;1.23;;;26.60;15.10;26.50;96930.00;;;;5054645;28;20202;-61
2023/10/08 11:10:51;;;;;;;0.90;0.90;;;26.70;14.50;26.50;96931.00;;;;5054083;28;20176;-60
2023/10/08 11:13:28;;;;;;;2.75;1.25;;;26.70;14.50;26.80;96938.00;;;;5053937;28;20247;-60
2023/10/08 11:15:58;;;;;;;3.33;1.77;;;27.00;14.70;27.10;96934.00;;;;5054182;28;20184;-60
2023/10/08 11:18:28;;;;;;;1.05;1.05;;;27.20;14.70;27.10;96937.00;;;;5053731;28;20207;-61
2023/10/08 11:21:15;;;;;;;8.55;1.83;;;27.20;14.90;27.50;96936.00;;;;5054092;28;20188;-61
2023/10/08 11:23:53;;;;;;;1.85;1.27;;;27.60;14.00;27.50;96928.00;;;;5053793;28;20195;-61
2023/10/08 11:26:31;;;;;;;1.65;0.88;;;27.70;13.70;27.70;96940.00;;;;5054112;28;20187;-61
2023/10/08 11:29:03;;;;;;;0.60;0.60;;;27.80;14.90;28.00;96936.00;;;;5053909;28;20644;-61
2023/10/08 11:31:33;;;;;;;6.20;2.05;;;28.10;15.10;28.10;96923.00;;;;5053618;28;20212;-61
2023/10/08 11:34:08;;;;;;;2.80;1.90;;;28.30;14.30;28.10;96934.00;;;;5053642;28;20185;-61
2023/10/08 11:36:48;;;;;;;11.27;1.65;;;28.30;13.00;28.10;96937.00;;;;5053654;28;20237;-61
2023/10/08 11:39:22;;;;;;;2.03;1.73;;;28.40;14.50;28.00;96936.00;;;;5053200;28;20180;-60
2023/10/08 11:41:58;;;;;;;1.67;1.25;;;28.20;13.70;27.90;96939.00;;;;5052126;28;20567;-61
2023/10/08 11:44:30;;;;;;;1.42;1.33;;;28.10;14.20;27.80;96952.00;;;;5052146;28;20279;-60
2023/10/08 11:47:04;;;;;;;3.95;1.90;;;28.20;13.80;27.50;96943.00;;;;5053446;28;20212;-61